This is the latest recevied weather packets stored in our database for station/object IZ3TCG-13. If no packets are shown the sender has not sent any weather packets the latest 10 day(s).
| Time | Temp. | Humidity | Pressure | Rain* | Wind** | Luminosity | Snow |
|---|---|---|---|---|---|---|---|
| 1777382644 | 23.89° C | 54% | 1011.8 hPa | 0 mm | - | - | - |
| 1777381684 | 24.44° C | 52% | 1012 hPa | 0 mm | - | - | - |
| 1777380003 | 24.44° C | 50% | 1012.2 hPa | 0 mm | - | - | - |
| 1777376644 | 25° C | 54% | 1012 hPa | 0 mm | - | - | - |
| 1777374616 | 25.56° C | 47% | 1012.3 hPa | 0 mm | - | - | - |
| 1777368244 | 23.33° C | 47% | 1010.6 hPa | 0 mm | - | - | - |
| 1777367893 | 23.33° C | 48% | 1010.6 hPa | 0 mm | - | - | - |
| 1777366564 | 23.33° C | 50% | 1010.9 hPa | 0 mm | - | - | - |
| 1777366324 | 22.22° C | 52% | 1010.8 hPa | 0 mm | - | - | - |
| 1777365843 | 22.22° C | 53% | 1011 hPa | 0 mm | - | - | - |
| 1777365124 | 22.78° C | 53% | 1010.8 hPa | 0 mm | - | - | - |
| 1777361176 | 20° C | 60% | 1010.6 hPa | 0 mm | - | - | - |
| 1777359256 | 19.44° C | 64% | 1010.5 hPa | 0 mm | - | - | - |
| 1777358884 | 19.44° C | 66% | 1010.5 hPa | 0 mm | - | - | - |
| 1777358163 | 18.33° C | 70% | 1010.3 hPa | 0 mm | - | - | - |
| 1777355044 | 15.56° C | 83% | 1010.5 hPa | 0 mm | - | - | - |
| 1777354563 | 15.56° C | 85% | 1010.4 hPa | 0 mm | - | - | - |
| 1777353124 | 14.44° C | 89% | 1010.2 hPa | 0 mm | - | - | - |
| 1777352644 | 14.44° C | 90% | 1009.9 hPa | 0 mm | - | - | - |
| 1777352164 | 14.44° C | 90% | 1009.9 hPa | 0 mm | - | - | - |
| 1777351924 | 14.44° C | 90% | 1010.2 hPa | 0 mm | - | - | - |
| 1777351684 | 14.44° C | 90% | 1010.1 hPa | 0 mm | - | - | - |
| 1777349284 | 14.44° C | 90% | 1010.1 hPa | 0 mm | - | - | - |
| 1777348564 | 15° C | 90% | 1009.8 hPa | 0 mm | - | - | - |
| 1777347364 | 14.44° C | 92% | 1009.9 hPa | 0 mm | - | - | - |
* Rain latest hour (hover to see other rain measurements)
** Current wind speed in m/s (hover to see current wind gust speed)